Time;durP1;ratioP1;P1;durP2;ratioP2;P2;SDS_P1;SDS_P2;PMS_P1;PMS_P2;Temp;Humidity;BMP_temperature;BMP_pressure;BME280_temperature;BME280_humidity;BME280_pressure;Samples;Min_cycle;Max_cycle;Signal;HPM_P1;HPM_P2
2022/03/08 00:01:46;;;;;;;;;13.25;11.25;;;;;19.96;23.64;101244.78;5079492;27;45868;-48
2022/03/08 00:04:12;;;;;;;;;13.75;13.75;;;;;19.97;23.51;101249.13;5078640;27;45943;-45
2022/03/08 00:06:37;;;;;;;;;13.50;12.25;;;;;19.95;23.46;101250.13;5078709;27;45360;-45
2022/03/08 00:09:03;;;;;;;;;12.75;11.00;;;;;19.91;23.30;101244.13;5078815;27;45449;-46
2022/03/08 00:11:28;;;;;;;;;14.75;13.25;;;;;19.91;23.53;101244.13;5079174;27;45523;-48
2022/03/08 00:13:54;;;;;;;;;14.25;11.50;;;;;19.88;23.95;101239.84;5078601;27;45166;-49
2022/03/08 00:16:20;;;;;;;;;16.00;13.00;;;;;19.87;23.84;101232.06;5079013;27;45230;-51
2022/03/08 00:18:48;;;;;;;;;13.25;13.00;;;;;19.86;23.38;101232.97;5079174;27;45282;-50
2022/03/08 00:21:15;;;;;;;;;13.25;12.75;;;;;19.85;23.74;101239.13;5078971;27;45474;-47
2022/03/08 00:23:42;;;;;;;;;15.25;15.25;;;;;19.83;23.84;101236.56;5078519;27;45899;-47
2022/03/08 00:26:07;;;;;;;;;14.25;12.25;;;;;19.83;23.54;101240.97;5077389;27;45335;-45
2022/03/08 00:28:33;;;;;;;;;12.50;12.50;;;;;19.80;23.88;101236.72;5078739;27;45374;-48
2022/03/08 00:30:58;;;;;;;;;14.25;12.00;;;;;19.81;23.89;101235.78;5077532;27;45245;-48
2022/03/08 00:33:24;;;;;;;;;13.50;13.50;;;;;19.80;23.64;101235.84;5078412;27;46342;-48
2022/03/08 00:35:50;;;;;;;;;11.25;11.25;;;;;19.78;23.67;101242.06;5078550;28;45387;-46
2022/03/08 00:38:16;;;;;;;;;14.50;12.75;;;;;19.77;23.66;101242.09;5078951;27;45794;-47
2022/03/08 00:40:42;;;;;;;;;13.75;13.75;;;;;19.77;23.92;101242.09;5077469;27;45276;-48
2022/03/08 00:43:07;;;;;;;;;12.25;12.25;;;;;19.75;23.96;101247.44;5078285;27;45397;-44
2022/03/08 00:45:33;;;;;;;;;12.00;11.50;;;;;19.74;23.72;101236.97;5078437;27;45427;-45
2022/03/08 00:47:58;;;;;;;;;15.25;13.75;;;;;19.72;23.67;101244.94;5077056;27;45519;-45
2022/03/08 00:50:26;;;;;;;;;14.00;12.75;;;;;19.72;23.75;101244.94;5078476;27;45440;-46
2022/03/08 00:52:52;;;;;;;;;15.75;13.25;;;;;19.71;23.93;101237.97;5078461;27;45389;-45
2022/03/08 00:55:19;;;;;;;;;15.50;14.25;;;;;19.69;23.91;101234.56;5078401;27;45235;-45
2022/03/08 00:57:44;;;;;;;;;14.25;13.00;;;;;19.69;23.99;101229.28;5078260;27;45307;-47
2022/03/08 01:00:13;;;;;;;;;13.00;11.25;;;;;19.69;23.59;101233.72;5078377;27;45386;-46
2022/03/08 01:02:38;;;;;;;;;17.75;16.25;;;;;19.66;23.80;101234.72;5077856;27;46959;-48
2022/03/08 01:05:04;;;;;;;;;16.25;15.25;;;;;19.66;23.94;101234.72;5076549;28;45413;-49
2022/03/08 01:07:30;;;;;;;;;14.25;13.75;;;;;19.65;23.67;101235.63;5078042;27;45364;-45
2022/03/08 01:09:56;;;;;;;;;16.75;14.50;;;;;19.64;23.45;101228.66;5077880;27;45397;-47
2022/03/08 01:12:22;;;;;;;;;12.75;12.00;;;;;19.62;23.77;101230.50;5078058;27;46310;-47
2022/03/08 01:14:47;;;;;;;;;15.25;13.00;;;;;19.61;23.75;101229.66;5077504;27;45307;-49
2022/03/08 01:17:13;;;;;;;;;15.25;13.75;;;;;19.59;23.98;101222.75;5078110;27;45342;-46
2022/03/08 01:19:38;;;;;;;;;13.50;13.50;;;;;19.58;23.73;101223.66;5078133;27;45354;-46
2022/03/08 01:22:04;;;;;;;;;14.00;12.50;;;;;19.58;23.91;101216.66;5077708;27;46598;-45
2022/03/08 01:24:30;;;;;;;;;13.25;13.25;;;;;19.56;23.89;101223.75;5077591;27;45354;-46
2022/03/08 01:26:55;;;;;;;;;14.00;14.00;;;;;19.54;23.69;101220.31;5077557;27;45269;-49
2022/03/08 01:29:20;;;;;;;;;15.50;14.00;;;;;19.55;23.71;101218.56;5078239;27;45183;-49
2022/03/08 01:31:46;;;;;;;;;15.50;14.25;;;;;19.54;23.87;101216.84;5077354;27;45269;-51
2022/03/08 01:34:11;;;;;;;;;20.00;14.75;;;;;19.54;24.20;101222.13;5077337;27;45350;-47
2022/03/08 01:36:36;;;;;;;;;13.25;12.50;;;;;19.53;23.85;101215.16;5077678;27;45287;-49
2022/03/08 01:39:03;;;;;;;;;12.75;12.75;;;;;19.50;23.77;101210.03;5077748;27;45173;-49
2022/03/08 01:41:29;;;;;;;;;12.25;10.00;;;;;19.50;24.13;101213.53;5077392;27;45542;-51
2022/03/08 01:43:54;;;;;;;;;14.75;13.50;;;;;19.51;23.97;101219.63;5077603;27;45741;-45
2022/03/08 01:46:20;;;;;;;;;11.75;11.75;;;;;19.50;23.74;101217.91;5077807;28;45276;-50
2022/03/08 01:48:45;;;;;;;;;11.00;9.25;;;;;19.47;24.07;101211.84;5077616;27;45695;-53
2022/03/08 01:51:13;;;;;;;;;12.00;12.00;;;;;19.49;23.74;101217.06;5077244;27;45379;-51
2022/03/08 01:53:40;;;;;;;;;13.50;13.50;;;;;19.47;24.14;101209.22;5077247;27;45939;-49
2022/03/08 01:56:08;;;;;;;;;19.50;14.25;;;;;19.47;23.80;101203.97;5077420;27;45322;-49
2022/03/08 01:58:33;;;;;;;;;14.25;14.25;;;;;19.46;23.92;101204.06;5077450;28;45516;-48
2022/03/08 02:01:00;;;;;;;;;16.00;14.00;;;;;19.45;24.09;101200.59;5076959;27;46291;-47
2022/03/08 02:03:25;;;;;;;;;14.75;13.25;;;;;19.44;24.01;101203.25;5077440;28;45975;-47
2022/03/08 02:05:51;;;;;;;;;15.75;14.75;;;;;19.42;24.12;101190.19;5077554;27;45721;-47
2022/03/08 02:08:17;;;;;;;;;13.75;13.75;;;;;19.42;24.13;101194.59;5076147;28;45652;-45
2022/03/08 02:10:42;;;;;;;;;13.00;12.00;;;;;19.40;23.81;101189.41;5077077;28;45428;-47
2022/03/08 02:13:07;;;;;;;;;15.00;14.25;;;;;19.39;23.74;101192.13;5075627;27;45326;-50
2022/03/08 02:15:33;;;;;;;;;16.25;12.50;;;;;19.38;24.09;101193.88;5076766;27;45375;-52
2022/03/08 02:18:00;;;;;;;;;14.75;12.50;;;;;19.37;23.96;101186.91;5077239;27;45249;-49
2022/03/08 02:20:27;;;;;;;;;14.00;12.75;;;;;19.36;24.22;101185.19;5077201;27;45318;-46
2022/03/08 02:22:52;;;;;;;;;17.75;14.00;;;;;19.36;24.17;101179.94;5076397;27;45332;-51
2022/03/08 02:25:19;;;;;;;;;12.00;12.00;;;;;19.34;23.96;101181.81;5077045;28;45438;-49
2022/03/08 02:27:49;;;;;;;;;14.00;14.00;;;;;19.34;24.19;101171.31;5077094;27;45323;-50
2022/03/08 02:30:16;;;;;;;;;14.75;14.75;;;;;19.33;24.35;101174.84;5076649;27;45523;-51
2022/03/08 02:32:42;;;;;;;;;15.00;14.75;;;;;19.32;24.12;101162.63;5076774;27;45392;-48
2022/03/08 02:35:12;;;;;;;;;15.25;13.50;;;;;19.30;23.79;101169.72;5076752;27;45414;-51
2022/03/08 02:37:47;;;;;;;;;16.75;14.50;;;;;19.29;23.94;101170.63;5077011;27;45769;-52
2022/03/08 02:40:15;;;;;;;;;13.75;13.75;;;;;19.29;24.11;101173.25;5076531;27;47347;-50
2022/03/08 02:42:41;;;;;;;;;13.50;13.50;;;;;19.28;24.09;101171.56;5076519;27;45252;-52
2022/03/08 02:45:08;;;;;;;;;14.25;14.25;;;;;19.26;24.02;101166.38;5075350;28;45360;-49
2022/03/08 02:47:33;;;;;;;;;14.25;13.00;;;;;19.26;23.82;101168.13;5076847;27;45526;-45
2022/03/08 02:49:58;;;;;;;;;15.25;13.25;;;;;19.26;23.91;101162.88;5076365;27;46308;-47
2022/03/08 02:52:24;;;;;;;;;13.50;13.50;;;;;19.25;24.12;101156.78;5076743;27;45357;-48
2022/03/08 02:54:49;;;;;;;;;16.50;15.50;;;;;19.23;23.99;101150.75;5076298;27;45314;-45
2022/03/08 02:57:14;;;;;;;;;15.75;14.00;;;;;19.23;23.89;101152.53;5076738;27;45588;-45
2022/03/08 02:59:40;;;;;;;;;15.50;12.25;;;;;19.22;24.06;101142.94;5076213;27;46159;-50
2022/03/08 03:02:05;;;;;;;;;16.50;15.00;;;;;19.22;24.02;101150.81;5076262;27;45370;-47
2022/03/08 03:04:31;;;;;;;;;14.00;13.00;;;;;19.20;24.20;101143.00;5076331;27;45483;-47
2022/03/08 03:06:56;;;;;;;;;16.67;13.00;;;;;19.20;23.90;101148.25;5076536;27;46167;-46
2022/03/08 03:09:21;;;;;;;;;13.75;12.25;;;;;19.20;24.29;101147.41;5076193;27;45362;-47
2022/03/08 03:11:47;;;;;;;;;14.75;12.75;;;;;19.19;24.14;101140.44;5076033;27;45490;-46
2022/03/08 03:14:12;;;;;;;;;15.00;14.50;;;;;19.19;24.01;101140.44;5076069;27;45323;-45
2022/03/08 03:16:38;;;;;;;;;13.00;13.00;;;;;19.18;24.02;101133.47;5074957;27;45470;-47
2022/03/08 03:19:04;;;;;;;;;13.75;13.25;;;;;19.18;24.44;101142.22;5075964;27;45640;-46
2022/03/08 03:21:29;;;;;;;;;15.00;12.75;;;;;19.16;24.32;101137.03;5076116;27;45294;-45
2022/03/08 03:23:54;;;;;;;;;15.50;13.25;;;;;19.16;24.11;101136.19;5076472;27;45359;-47
2022/03/08 03:26:20;;;;;;;;;15.25;13.00;;;;;19.15;24.12;101137.94;5076290;27;45595;-47
2022/03/08 03:28:45;;;;;;;;;10.50;9.00;;;;;19.13;24.26;101121.38;5075744;27;45953;-45
2022/03/08 03:31:10;;;;;;;;;15.25;11.75;;;;;19.15;24.30;101131.84;5075833;27;45349;-48
2022/03/08 03:33:36;;;;;;;;;16.25;15.75;;;;;19.14;24.35;101130.13;5077110;27;45233;-49
2022/03/08 03:36:01;;;;;;;;;17.00;15.50;;;;;19.13;24.26;101125.81;5079332;27;45605;-46
2022/03/08 03:38:26;;;;;;;;;14.25;12.50;;;;;19.11;24.45;101128.50;5079684;27;45282;-47
2022/03/08 03:40:52;;;;;;;;;14.00;12.75;;;;;19.11;23.87;101115.38;5079224;27;45351;-51
2022/03/08 03:43:17;;;;;;;;;12.75;12.75;;;;;19.10;24.27;101118.91;5079341;27;45402;-50
2022/03/08 03:45:43;;;;;;;;;15.00;14.00;;;;;19.09;24.36;101109.31;5079540;27;45489;-48
2022/03/08 03:48:08;;;;;;;;;14.75;14.75;;;;;19.10;24.36;101107.53;5079120;27;45442;-47
2022/03/08 03:50:33;;;;;;;;;15.25;14.00;;;;;19.10;24.10;101121.53;5079035;27;45364;-46
2022/03/08 03:52:59;;;;;;;;;15.75;13.50;;;;;19.07;24.25;101116.41;5079439;27;45457;-46
2022/03/08 03:55:24;;;;;;;;;14.25;14.25;;;;;19.08;24.13;101117.25;5079185;27;45457;-45
2022/03/08 03:57:50;;;;;;;;;15.50;15.00;;;;;19.07;24.40;101116.41;5078858;27;46804;-47
2022/03/08 04:00:16;;;;;;;;;12.25;12.25;;;;;19.12;24.03;101117.09;5077689;27;45470;-47
2022/03/08 04:02:42;;;;;;;;;14.00;12.25;;;;;19.14;24.51;101111.75;5079127;27;45405;-46
2022/03/08 04:05:09;;;;;;;;;11.50;11.50;;;;;19.21;24.36;101128.09;5079398;27;45344;-46
2022/03/08 04:07:35;;;;;;;;;11.75;11.75;;;;;19.27;24.05;101127.81;5078829;27;45429;-46
2022/03/08 04:10:00;;;;;;;;;14.00;12.00;;;;;19.33;24.14;101113.53;5079145;27;46090;-45
2022/03/08 04:12:26;;;;;;;;;14.25;14.25;;;;;19.39;24.30;101115.88;5079073;27;46212;-47
2022/03/08 04:14:51;;;;;;;;;14.25;11.50;;;;;19.45;24.15;101116.47;5078954;27;45438;-47
2022/03/08 04:17:16;;;;;;;;;14.25;12.75;;;;;19.54;24.37;101124.84;5078978;27;45889;-47
2022/03/08 04:19:42;;;;;;;;;11.25;10.25;;;;;19.59;24.15;101123.69;5079099;27;45279;-50
2022/03/08 04:22:08;;;;;;;;;8.25;8.00;;;;;19.64;24.34;101118.22;5078940;27;45307;-51
2022/03/08 04:24:34;;;;;;;;;16.25;12.25;;;;;19.71;24.02;101121.41;5078854;27;45401;-51
2022/03/08 04:26:59;;;;;;;;;14.50;13.25;;;;;19.77;24.30;101123.75;5078802;27;45488;-47
2022/03/08 04:29:24;;;;;;;;;13.25;12.00;;;;;19.82;23.85;101118.25;5078605;27;45329;-48
2022/03/08 04:31:50;;;;;;;;;15.00;12.50;;;;;19.85;23.94;101111.06;5078526;27;45696;-47
2022/03/08 04:34:15;;;;;;;;;15.00;15.00;;;;;19.92;24.31;101115.16;5078625;27;45475;-44
2022/03/08 04:36:41;;;;;;;;;13.00;13.00;;;;;19.95;24.29;101103.63;5078412;27;45389;-49
2022/03/08 04:39:07;;;;;;;;;15.25;12.25;;;;;20.00;24.21;101106.91;5078264;27;45343;-49
2022/03/08 04:41:33;;;;;;;;;15.25;12.50;;;;;20.04;23.70;101105.81;5078826;27;45447;-45
2022/03/08 04:43:58;;;;;;;;;15.00;12.50;;;;;20.06;24.00;101103.13;5078854;27;45643;-48
2022/03/08 04:46:24;;;;;;;;;15.25;14.00;;;;;20.07;23.93;101108.31;5077775;27;45248;-48
2022/03/08 04:48:49;;;;;;;;;14.50;13.25;;;;;20.08;23.58;101098.63;5078204;27;45364;-47
2022/03/08 04:51:15;;;;;;;;;12.25;11.00;;;;;20.11;23.57;101105.53;5078459;27;45267;-46
2022/03/08 04:53:42;;;;;;;;;11.00;11.00;;;;;20.11;23.76;101101.09;5078293;27;45529;-47
2022/03/08 04:56:07;;;;;;;;;14.00;12.25;;;;;20.13;23.54;101101.00;5076753;28;47999;-50
2022/03/08 04:58:33;;;;;;;;;16.00;12.00;;;;;20.13;23.55;101101.88;5078640;27;45331;-47
2022/03/08 05:00:58;;;;;;;;;13.25;13.00;;;;;20.14;23.52;101098.31;5078195;27;45371;-47
2022/03/08 05:03:24;;;;;;;;;14.00;13.00;;;;;20.15;23.68;101097.41;5078298;27;45488;-45
2022/03/08 05:05:49;;;;;;;;;12.75;12.75;;;;;20.15;23.33;101097.41;5077769;27;46113;-46
2022/03/08 05:08:14;;;;;;;;;12.25;10.25;;;;;20.17;23.42;101102.56;5078024;27;46195;-46
2022/03/08 05:10:40;;;;;;;;;15.75;13.25;;;;;20.17;23.52;101098.19;5078122;27;45861;-46
2022/03/08 05:13:06;;;;;;;;;14.00;14.00;;;;;20.19;23.26;101098.09;5078114;27;45402;-44
2022/03/08 05:15:31;;;;;;;;;15.75;14.25;;;;;20.17;23.78;101089.41;5077695;27;45811;-46
2022/03/08 05:17:57;;;;;;;;;15.50;13.50;;;;;20.19;23.60;101100.72;5077787;27;45405;-45
2022/03/08 05:20:22;;;;;;;;;14.50;12.75;;;;;20.17;23.42;101097.31;5077849;27;45813;-48
2022/03/08 05:22:47;;;;;;;;;17.50;16.00;;;;;20.18;23.27;101101.66;5077907;27;45537;-46
2022/03/08 05:25:13;;;;;;;;;13.25;12.25;;;;;20.17;23.35;101097.31;5077390;27;46015;-46
2022/03/08 05:27:39;;;;;;;;;12.25;10.75;;;;;20.15;23.34;101089.50;5077526;27;45210;-46
2022/03/08 05:30:05;;;;;;;;;15.25;14.50;;;;;20.14;23.29;101100.97;5077951;27;45378;-46
2022/03/08 05:32:31;;;;;;;;;17.00;14.50;;;;;20.13;23.34;101096.63;5078130;27;45603;-45
2022/03/08 05:34:56;;;;;;;;;13.50;13.50;;;;;20.11;23.07;101092.38;5077317;28;46115;-49
2022/03/08 05:37:22;;;;;;;;;17.25;15.00;;;;;20.08;23.42;101099.47;5077420;27;45362;-48
2022/03/08 05:39:47;;;;;;;;;15.25;13.25;;;;;20.06;23.39;101095.22;5077540;27;45235;-49
2022/03/08 05:42:12;;;;;;;;;13.00;13.00;;;;;20.04;23.92;101094.44;5077816;27;45595;-48
2022/03/08 05:44:38;;;;;;;;;15.00;13.00;;;;;20.01;23.78;101097.22;5077252;27;46095;-49
2022/03/08 05:47:04;;;;;;;;;14.25;13.50;;;;;20.00;23.46;101092.88;5077590;27;46019;-45
2022/03/08 05:49:30;;;;;;;;;12.75;11.00;;;;;19.98;23.92;101087.72;5077375;27;45390;-49
2022/03/08 05:51:55;;;;;;;;;12.75;12.75;;;;;19.96;23.58;101088.69;5077454;27;45299;-46
2022/03/08 05:54:21;;;;;;;;;13.25;13.25;;;;;19.93;23.72;101084.44;5076899;27;45544;-46
2022/03/08 05:56:46;;;;;;;;;14.50;14.50;;;;;19.91;23.87;101088.91;5076206;27;45323;-47
2022/03/08 05:59:12;;;;;;;;;15.00;13.50;;;;;19.88;23.76;101086.44;5075757;28;45452;-48
2022/03/08 06:01:37;;;;;;;;;14.75;14.25;;;;;19.86;23.99;101089.13;5077317;27;45430;-47
2022/03/08 06:04:02;;;;;;;;;17.25;14.75;;;;;19.86;23.94;101088.31;5077300;27;45998;-46
2022/03/08 06:06:28;;;;;;;;;16.00;15.50;;;;;19.85;23.91;101094.44;5077066;27;45443;-46
2022/03/08 06:08:53;;;;;;;;;18.25;16.50;;;;;19.82;23.41;101095.47;5077028;27;45212;-45
2022/03/08 06:11:21;;;;;;;;;17.75;16.75;;;;;19.78;23.75;101110.53;5077135;27;45305;-45
2022/03/08 06:13:47;;;;;;;;;30.50;28.75;;;;;19.72;23.08;101102.94;5076744;27;45411;-47
2022/03/08 06:16:13;;;;;;;;;29.25;24.00;;;;;19.62;22.75;101106.91;5076509;27;45279;-47
2022/03/08 06:18:39;;;;;;;;;30.00;28.00;;;;;19.47;22.57;101101.44;5076826;27;45457;-45
2022/03/08 06:21:04;;;;;;;;;33.50;29.00;;;;;19.35;22.48;101115.16;5077289;27;45615;-46
2022/03/08 06:23:29;;;;;;;;;27.75;26.75;;;;;19.19;22.74;101122.03;5076701;27;46043;-47
2022/03/08 06:25:55;;;;;;;;;34.50;31.00;;;;;19.05;22.52;101114.78;5076771;27;45369;-46
2022/03/08 06:28:20;;;;;;;;;32.25;31.25;;;;;18.87;22.59;101114.63;5076897;27;45346;-48
2022/03/08 06:30:46;;;;;;;;;28.50;28.00;;;;;18.77;22.62;101124.69;5076812;27;45643;-44
2022/03/08 06:33:12;;;;;;;;;36.00;30.00;;;;;18.64;22.50;101108.59;5076553;28;46050;-46
2022/03/08 06:35:37;;;;;;;;;28.25;27.50;;;;;18.53;22.36;101114.34;5076719;27;45294;-49
2022/03/08 06:38:03;;;;;;;;;30.50;27.75;;;;;18.44;22.25;101114.72;5076940;28;45433;-44
2022/03/08 06:40:28;;;;;;;;;27.25;25.50;;;;;18.42;22.55;101115.69;5076974;27;45604;-45
2022/03/08 06:42:54;;;;;;;;;27.00;23.50;;;;;18.43;22.77;101112.16;5076396;27;45621;-46
2022/03/08 06:45:19;;;;;;;;;26.50;23.25;;;;;18.46;22.83;101115.50;5076548;27;45229;-50
2022/03/08 06:47:45;;;;;;;;;24.25;21.25;;;;;18.49;22.91;101110.13;5075431;28;45485;-49
2022/03/08 06:50:10;;;;;;;;;28.50;25.00;;;;;18.52;23.01;101110.00;5076785;27;45383;-45
2022/03/08 06:52:36;;;;;;;;;23.75;20.75;;;;;18.56;22.94;101117.75;5076453;27;45629;-46
2022/03/08 06:55:02;;;;;;;;;31.50;27.00;;;;;18.59;22.99;101117.59;5076284;27;45323;-47
2022/03/08 06:57:28;;;;;;;;;22.25;19.75;;;;;18.62;23.08;101109.59;5076461;27;45296;-47
2022/03/08 06:59:53;;;;;;;;;32.25;26.75;;;;;18.63;23.06;101112.16;5075510;28;45643;-47
2022/03/08 07:02:18;;;;;;;;;27.00;22.00;;;;;18.65;23.01;101115.56;5076168;27;45439;-43
2022/03/08 07:04:44;;;;;;;;;23.25;21.50;;;;;18.67;22.96;101115.53;5076190;27;45375;-45
2022/03/08 07:07:09;;;;;;;;;24.75;21.75;;;;;18.69;22.92;101109.28;5076611;27;45365;-46
2022/03/08 07:09:34;;;;;;;;;27.25;19.25;;;;;18.71;23.17;101114.44;5078968;27;45351;-45
2022/03/08 07:12:00;;;;;;;;;21.50;18.75;;;;;18.72;23.09;101117.94;5078393;27;47283;-47
2022/03/08 07:14:26;;;;;;;;;23.50;20.50;;;;;18.72;23.31;101108.28;5079486;27;45315;-45
2022/03/08 07:16:51;;;;;;;;;20.75;19.00;;;;;18.74;23.18;101109.06;5078354;27;45530;-45
2022/03/08 07:19:17;;;;;;;;;21.00;18.75;;;;;18.76;23.22;101111.63;5079985;27;45580;-45
2022/03/08 07:21:43;;;;;;;;;25.75;23.25;;;;;18.75;23.15;101113.41;5079471;27;45389;-48
2022/03/08 07:24:09;;;;;;;;;19.50;19.00;;;;;18.76;23.31;101109.00;5080011;27;45308;-46
2022/03/08 07:26:34;;;;;;;;;20.00;18.25;;;;;18.78;23.23;101115.03;5079474;27;45315;-46
2022/03/08 07:28:59;;;;;;;;;20.50;18.50;;;;;18.78;23.10;101120.28;5079653;27;45206;-47
2022/03/08 07:31:25;;;;;;;;;21.75;19.50;;;;;18.77;23.55;101129.97;5078023;27;46972;-45
2022/03/08 07:33:51;;;;;;;;;25.00;19.50;;;;;18.79;23.54;101128.13;5079271;27;45331;-48
2022/03/08 07:36:16;;;;;;;;;19.75;18.50;;;;;18.80;23.61;101132.44;5079553;27;45889;-47
2022/03/08 07:38:42;;;;;;;;;22.50;18.25;;;;;18.80;23.34;101139.47;5079741;27;45466;-49
2022/03/08 07:41:07;;;;;;;;;22.75;20.00;;;;;18.80;23.54;101135.06;5079457;27;45378;-48
2022/03/08 07:43:37;;;;;;;;;22.00;18.00;;;;;18.80;23.65;101149.97;5079341;27;45315;-48
2022/03/08 07:46:04;;;;;;;;;17.75;17.75;;;;;18.80;23.65;101145.56;5079605;27;45379;-48
2022/03/08 07:48:29;;;;;;;;;23.50;22.00;;;;;18.81;23.38;101160.41;5079478;27;45422;-46
2022/03/08 07:50:54;;;;;;;;;20.50;19.00;;;;;18.80;23.67;101149.97;5079093;27;45263;-45
2022/03/08 07:53:20;;;;;;;;;16.75;16.75;;;;;18.80;23.73;101156.06;5078953;27;45235;-45
2022/03/08 07:55:46;;;;;;;;;23.50;16.50;;;;;18.82;23.41;101153.38;5079116;27;45450;-45
2022/03/08 07:58:13;;;;;;;;;24.00;20.75;;;;;18.82;23.42;101148.97;5079558;27;45537;-46
2022/03/08 08:00:40;;;;;;;;;24.50;19.00;;;;;18.81;23.61;101144.63;5078010;27;45484;-45
2022/03/08 08:03:06;;;;;;;;;21.50;17.25;;;;;18.83;23.69;101145.44;5078957;27;45847;-45
2022/03/08 08:05:33;;;;;;;;;23.00;19.75;;;;;18.82;23.61;101146.34;5077711;27;45314;-45
2022/03/08 08:07:59;;;;;;;;;17.75;16.25;;;;;18.81;23.69;101136.75;5078084;27;45560;-45
2022/03/08 08:10:24;;;;;;;;;19.25;18.25;;;;;18.82;23.66;101146.34;5077282;28;48072;-47
2022/03/08 08:12:50;;;;;;;;;17.75;16.00;;;;;18.82;23.40;101151.59;5077389;27;45226;-45
2022/03/08 08:15:15;;;;;;;;;20.50;17.25;;;;;18.83;23.94;101160.34;5078630;27;45822;-46
2022/03/08 08:17:41;;;;;;;;;18.50;16.50;;;;;18.84;23.74;101157.66;5078055;27;45354;-45
2022/03/08 08:20:08;;;;;;;;;25.25;20.75;;;;;18.87;23.83;101147.94;5076298;27;46205;-48
2022/03/08 08:22:34;;;;;;;;;17.00;16.50;;;;;18.87;23.71;101142.69;5077456;28;45471;-45
2022/03/08 08:24:59;;;;;;;;;16.50;16.50;;;;;18.88;23.81;101141.75;5078882;27;45470;-46
2022/03/08 08:27:25;;;;;;;;;20.00;17.75;;;;;18.87;24.03;101151.41;5078951;27;45404;-47
2022/03/08 08:29:50;;;;;;;;;20.75;18.00;;;;;18.85;23.97;101143.59;5078553;27;46276;-50
2022/03/08 08:32:15;;;;;;;;;17.00;17.00;;;;;18.87;24.17;101153.19;5078437;27;45432;-47
2022/03/08 08:34:40;;;;;;;;;16.00;13.50;;;;;18.86;23.91;101152.31;5078875;27;45471;-46
2022/03/08 08:37:07;;;;;;;;;13.00;13.00;;;;;18.87;23.83;101150.56;5077133;28;48305;-53
2022/03/08 08:39:32;;;;;;;;;19.00;17.50;;;;;18.86;24.13;101160.19;5076989;28;46914;-49
2022/03/08 08:41:58;;;;;;;;;17.25;16.50;;;;;18.87;24.04;101166.31;5077240;28;45364;-51
2022/03/08 08:44:26;;;;;;;;;18.50;17.25;;;;;18.85;24.12;101163.78;5078478;27;45417;-51
2022/03/08 08:46:52;;;;;;;;;17.00;15.75;;;;;18.85;24.11;101161.97;5078594;27;45274;-50
2022/03/08 08:49:17;;;;;;;;;17.00;14.00;;;;;18.88;24.04;101152.28;5078279;27;46173;-46
2022/03/08 08:51:43;;;;;;;;;21.50;16.50;;;;;18.86;24.26;101162.81;5078529;27;45237;-46
2022/03/08 08:54:08;;;;;;;;;18.00;16.50;;;;;18.85;24.24;101164.59;5078393;27;45291;-47
2022/03/08 08:56:35;;;;;;;;;22.00;19.33;;;;;18.87;23.97;101167.16;5078403;27;45521;-44
2022/03/08 08:59:05;;;;;;;;;19.00;14.25;;;;;18.87;24.12;101155.81;5078027;27;45358;-45
2022/03/08 09:01:30;;;;;;;;;11.75;11.75;;;;;18.87;24.14;101163.69;5076758;28;45295;-45
2022/03/08 09:03:55;;;;;;;;;15.75;15.00;;;;;18.88;24.18;101160.16;5078092;27;45848;-46
2022/03/08 09:06:21;;;;;;;;;18.00;17.75;;;;;18.89;24.30;101164.50;5078309;27;45433;-48
2022/03/08 09:08:46;;;;;;;;;17.25;15.00;;;;;18.88;24.26;101154.91;5077969;27;45321;-46
2022/03/08 09:11:12;;;;;;;;;17.75;15.00;;;;;18.90;24.29;101153.06;5078173;27;45161;-47
2022/03/08 09:13:38;;;;;;;;;19.25;16.00;;;;;18.91;24.22;101152.13;5077971;27;45218;-48
2022/03/08 09:16:04;;;;;;;;;21.00;18.25;;;;;18.94;24.50;101158.16;5077628;27;45493;-45
2022/03/08 09:18:30;;;;;;;;;17.75;16.50;;;;;18.95;24.14;101156.34;5077682;27;46527;-46
2022/03/08 09:20:55;;;;;;;;;19.25;16.25;;;;;18.95;24.35;101157.22;5077733;27;45275;-48
2022/03/08 09:23:20;;;;;;;;;19.00;18.75;;;;;18.96;24.49;101155.44;5077940;27;45368;-46
2022/03/08 09:25:46;;;;;;;;;17.75;17.00;;;;;18.96;24.43;101158.06;5078251;27;45354;-48
2022/03/08 09:28:11;;;;;;;;;18.25;16.50;;;;;18.95;24.36;101149.34;5077495;27;46303;-46
2022/03/08 09:30:37;;;;;;;;;18.50;16.25;;;;;18.97;24.64;101144.03;5077555;27;45481;-47
2022/03/08 09:33:03;;;;;;;;;17.25;16.50;;;;;18.96;24.66;101145.78;5077480;27;45988;-50
2022/03/08 09:35:29;;;;;;;;;20.25;17.50;;;;;18.96;24.48;101144.94;5077813;27;45176;-47
2022/03/08 09:37:55;;;;;;;;;23.25;20.25;;;;;18.95;24.34;101138.84;5077416;27;45808;-49
2022/03/08 09:40:22;;;;;;;;;17.00;16.00;;;;;18.96;24.23;101142.31;5077575;27;45779;-45
2022/03/08 09:42:51;;;;;;;;;20.50;17.50;;;;;18.96;24.16;101134.44;5077352;27;45342;-47
2022/03/08 09:45:18;;;;;;;;;21.50;17.00;;;;;18.94;24.43;101133.63;5077905;28;45284;-46
2022/03/08 09:47:43;;;;;;;;;22.25;16.50;;;;;18.93;24.26;101140.69;5077499;27;47007;-45
2022/03/08 09:50:11;;;;;;;;;17.75;17.75;;;;;18.92;24.62;101133.69;5076230;27;45339;-46
2022/03/08 09:52:38;;;;;;;;;15.50;14.75;;;;;18.90;24.23;101146.03;5077488;28;45500;-44
2022/03/08 09:55:11;;;;;;;;;16.25;14.00;;;;;18.88;24.32;101144.41;5077316;27;45523;-44
2022/03/08 09:57:37;;;;;;;;;19.50;16.00;;;;;18.88;24.26;101147.03;5075917;28;47248;-45
2022/03/08 10:00:05;;;;;;;;;18.25;18.25;;;;;18.85;24.16;101138.34;5077116;27;45596;-44
2022/03/08 10:02:45;;;;;;;;;17.25;15.00;;;;;18.86;24.50;101141.81;5077493;27;45405;-45
2022/03/08 10:05:11;;;;;;;;;18.00;17.75;;;;;18.84;24.68;101127.91;5076257;27;45543;-46
2022/03/08 10:07:36;;;;;;;;;18.25;16.25;;;;;18.88;25.09;101131.25;5076731;27;46280;-47
2022/03/08 10:10:02;;;;;;;;;24.50;22.00;;;;;18.87;25.36;101129.56;5076910;27;45363;-45
2022/03/08 10:12:27;;;;;;;;;20.50;20.50;;;;;18.90;25.67;101134.69;5076934;27;45362;-45
2022/03/08 10:14:53;;;;;;;;;20.75;18.00;;;;;18.89;25.63;101125.09;5076901;27;45290;-45
2022/03/08 10:17:34;;;;;;;;;16.75;16.25;;;;;18.90;25.58;101127.63;5077177;27;46063;-45
2022/03/08 10:19:59;;;;;;;;;17.00;16.50;;;;;18.93;25.88;101124.00;5076940;27;45786;-48
2022/03/08 10:22:29;;;;;;;;;22.25;15.50;;;;;18.93;25.55;101126.66;5077069;27;45187;-45
2022/03/08 10:25:11;;;;;;;;;21.50;20.75;;;;;18.94;25.71;101118.75;5077091;27;45476;-45
2022/03/08 10:27:36;;;;;;;;;23.75;22.75;;;;;18.95;25.87;101115.19;5075301;28;45394;-49
2022/03/08 10:30:04;;;;;;;;;20.25;17.25;;;;;18.95;26.03;101106.44;5076790;27;45243;-45
2022/03/08 10:32:36;;;;;;;;;27.25;21.00;;;;;18.94;25.77;101110.88;5076844;27;45321;-51
2022/03/08 10:35:03;;;;;;;;;21.75;20.00;;;;;18.96;25.87;101113.41;5076906;27;45276;-46
2022/03/08 10:37:35;;;;;;;;;25.25;22.50;;;;;18.95;26.22;101107.31;5076427;28;45358;-45
2022/03/08 10:40:05;;;;;;;;;22.50;17.50;;;;;18.96;26.33;101108.16;5076648;27;45868;-47
2022/03/08 10:42:33;;;;;;;;;24.00;22.50;;;;;18.95;25.98;101107.31;5075003;27;45460;-47
2022/03/08 10:45:08;;;;;;;;;23.00;21.75;;;;;18.96;26.28;101110.78;5076310;28;45539;-44
2022/03/08 10:47:50;;;;;;;;;18.25;18.25;;;;;18.97;25.99;101104.63;5076425;27;46555;-47
2022/03/08 10:50:18;;;;;;;;;21.00;20.00;;;;;18.96;26.31;101108.16;5075639;28;45380;-48
2022/03/08 10:52:46;;;;;;;;;26.50;22.50;;;;;18.96;26.10;101105.53;5075361;28;45285;-49
2022/03/08 10:55:11;;;;;;;;;15.00;15.00;;;;;18.96;26.25;101108.16;5075264;27;45206;-48
2022/03/08 10:57:38;;;;;;;;;20.50;19.50;;;;;18.96;26.24;101100.28;5076272;27;46052;-45
2022/03/08 11:00:11;;;;;;;;;20.25;19.25;;;;;18.95;25.81;101094.19;5076444;27;45970;-47
2022/03/08 11:02:52;;;;;;;;;20.75;17.75;;;;;18.96;25.90;101097.66;5075430;28;45612;-46
2022/03/08 11:05:20;;;;;;;;;20.00;17.50;;;;;18.96;26.01;101095.03;5075483;28;45571;-47